sensor_id;sensor_type;location;lat;lon;timestamp;temperature;humidity
33715;DHT22;20043;50.998;4.754;2023-03-29T00:01:56;9.30;99.90
33715;DHT22;20043;50.998;4.754;2023-03-29T00:04:21;9.40;99.90
33715;DHT22;20043;50.998;4.754;2023-03-29T00:06:47;9.50;99.90
33715;DHT22;20043;50.998;4.754;2023-03-29T00:09:15;9.40;99.90
33715;DHT22;20043;50.998;4.754;2023-03-29T00:11:41;9.40;99.90
33715;DHT22;20043;50.998;4.754;2023-03-29T00:14:07;9.40;99.90
33715;DHT22;20043;50.998;4.754;2023-03-29T00:16:33;9.40;99.90
33715;DHT22;20043;50.998;4.754;2023-03-29T00:18:58;9.40;99.90
33715;DHT22;20043;50.998;4.754;2023-03-29T00:21:24;9.40;99.90
33715;DHT22;20043;50.998;4.754;2023-03-29T00:23:50;9.40;99.90
33715;DHT22;20043;50.998;4.754;2023-03-29T00:26:15;9.50;99.90
33715;DHT22;20043;50.998;4.754;2023-03-29T00:28:41;9.50;99.90
33715;DHT22;20043;50.998;4.754;2023-03-29T00:31:09;9.30;99.90
33715;DHT22;20043;50.998;4.754;2023-03-29T00:33:35;9.30;99.90
33715;DHT22;20043;50.998;4.754;2023-03-29T00:36:01;9.30;99.90
33715;DHT22;20043;50.998;4.754;2023-03-29T00:38:28;9.20;99.90
33715;DHT22;20043;50.998;4.754;2023-03-29T00:40:54;9.30;99.90
33715;DHT22;20043;50.998;4.754;2023-03-29T00:43:20;9.30;99.90
33715;DHT22;20043;50.998;4.754;2023-03-29T00:45:46;9.30;99.90
33715;DHT22;20043;50.998;4.754;2023-03-29T00:48:14;9.30;99.90
33715;DHT22;20043;50.998;4.754;2023-03-29T00:50:51;9.40;99.90
33715;DHT22;20043;50.998;4.754;2023-03-29T00:53:19;9.50;99.90
33715;DHT22;20043;50.998;4.754;2023-03-29T00:56:07;9.60;99.90
33715;DHT22;20043;50.998;4.754;2023-03-29T00:58:54;9.70;99.90
33715;DHT22;20043;50.998;4.754;2023-03-29T01:04:06;9.80;99.90
33715;DHT22;20043;50.998;4.754;2023-03-29T01:06:34;9.80;99.90
33715;DHT22;20043;50.998;4.754;2023-03-29T01:09:06;9.90;99.90
33715;DHT22;20043;50.998;4.754;2023-03-29T01:11:41;9.90;99.90
33715;DHT22;20043;50.998;4.754;2023-03-29T01:14:20;9.90;99.90
33715;DHT22;20043;50.998;4.754;2023-03-29T01:16:46;9.90;99.90
33715;DHT22;20043;50.998;4.754;2023-03-29T01:19:15;9.70;99.90
33715;DHT22;20043;50.998;4.754;2023-03-29T01:21:48;9.60;99.90
33715;DHT22;20043;50.998;4.754;2023-03-29T01:29:31;10.00;99.90
33715;DHT22;20043;50.998;4.754;2023-03-29T01:32:12;10.10;99.90
33715;DHT22;20043;50.998;4.754;2023-03-29T01:34:44;9.80;99.90
33715;DHT22;20043;50.998;4.754;2023-03-29T01:37:35;9.70;99.90
33715;DHT22;20043;50.998;4.754;2023-03-29T01:40:04;9.70;99.90
33715;DHT22;20043;50.998;4.754;2023-03-29T01:47:44;9.80;99.90
33715;DHT22;20043;50.998;4.754;2023-03-29T01:50:19;10.00;99.90
33715;DHT22;20043;50.998;4.754;2023-03-29T01:52:59;10.10;99.90
33715;DHT22;20043;50.998;4.754;2023-03-29T01:55:35;10.20;99.90
33715;DHT22;20043;50.998;4.754;2023-03-29T01:58:04;10.00;99.90
33715;DHT22;20043;50.998;4.754;2023-03-29T02:00:33;10.10;99.90
33715;DHT22;20043;50.998;4.754;2023-03-29T02:03:03;10.00;99.90
33715;DHT22;20043;50.998;4.754;2023-03-29T02:05:30;9.80;99.90
33715;DHT22;20043;50.998;4.754;2023-03-29T02:07:58;10.00;99.90
33715;DHT22;20043;50.998;4.754;2023-03-29T02:10:24;10.10;99.90
33715;DHT22;20043;50.998;4.754;2023-03-29T02:12:51;10.10;99.90
33715;DHT22;20043;50.998;4.754;2023-03-29T02:15:18;10.00;99.90
33715;DHT22;20043;50.998;4.754;2023-03-29T02:17:45;10.00;99.90
33715;DHT22;20043;50.998;4.754;2023-03-29T02:25:21;9.70;99.90
33715;DHT22;20043;50.998;4.754;2023-03-29T02:27:49;9.70;99.90
33715;DHT22;20043;50.998;4.754;2023-03-29T02:30:16;9.90;99.90
33715;DHT22;20043;50.998;4.754;2023-03-29T02:35:47;9.90;99.90
33715;DHT22;20043;50.998;4.754;2023-03-29T02:38:17;10.00;99.90
33715;DHT22;20043;50.998;4.754;2023-03-29T02:40:44;9.90;99.90
33715;DHT22;20043;50.998;4.754;2023-03-29T02:43:12;9.90;99.90
33715;DHT22;20043;50.998;4.754;2023-03-29T02:45:40;9.80;99.90
33715;DHT22;20043;50.998;4.754;2023-03-29T02:48:09;9.90;99.90
33715;DHT22;20043;50.998;4.754;2023-03-29T02:50:38;10.00;99.90
33715;DHT22;20043;50.998;4.754;2023-03-29T02:53:10;10.00;99.90
33715;DHT22;20043;50.998;4.754;2023-03-29T02:55:37;10.00;99.90
33715;DHT22;20043;50.998;4.754;2023-03-29T02:58:04;9.90;99.90
33715;DHT22;20043;50.998;4.754;2023-03-29T03:00:37;9.80;99.90
33715;DHT22;20043;50.998;4.754;2023-03-29T03:03:05;9.90;99.90
33715;DHT22;20043;50.998;4.754;2023-03-29T03:05:32;9.90;99.90
33715;DHT22;20043;50.998;4.754;2023-03-29T03:07:58;9.90;99.90
33715;DHT22;20043;50.998;4.754;2023-03-29T03:10:24;9.90;99.90
33715;DHT22;20043;50.998;4.754;2023-03-29T03:12:49;9.90;99.90
33715;DHT22;20043;50.998;4.754;2023-03-29T03:15:15;9.80;99.90
33715;DHT22;20043;50.998;4.754;2023-03-29T03:17:41;9.80;99.90
33715;DHT22;20043;50.998;4.754;2023-03-29T03:20:08;9.70;99.90
33715;DHT22;20043;50.998;4.754;2023-03-29T03:22:38;9.70;99.90
33715;DHT22;20043;50.998;4.754;2023-03-29T03:25:04;9.80;99.90
33715;DHT22;20043;50.998;4.754;2023-03-29T03:27:30;9.80;99.90
33715;DHT22;20043;50.998;4.754;2023-03-29T03:29:58;9.80;99.90
33715;DHT22;20043;50.998;4.754;2023-03-29T03:32:23;9.90;99.90
33715;DHT22;20043;50.998;4.754;2023-03-29T03:34:49;9.80;99.90
33715;DHT22;20043;50.998;4.754;2023-03-29T03:37:15;9.90;99.90
33715;DHT22;20043;50.998;4.754;2023-03-29T03:39:40;9.90;99.90
33715;DHT22;20043;50.998;4.754;2023-03-29T03:42:06;9.90;99.90
33715;DHT22;20043;50.998;4.754;2023-03-29T03:44:31;9.90;99.90
33715;DHT22;20043;50.998;4.754;2023-03-29T03:46:57;9.90;99.90
33715;DHT22;20043;50.998;4.754;2023-03-29T03:49:22;10.00;99.90
33715;DHT22;20043;50.998;4.754;2023-03-29T03:51:48;10.00;99.90
33715;DHT22;20043;50.998;4.754;2023-03-29T03:54:14;9.90;99.90
33715;DHT22;20043;50.998;4.754;2023-03-29T03:56:39;9.90;99.90
33715;DHT22;20043;50.998;4.754;2023-03-29T03:59:05;10.00;99.90
33715;DHT22;20043;50.998;4.754;2023-03-29T04:01:31;10.00;99.90
33715;DHT22;20043;50.998;4.754;2023-03-29T04:04:04;10.00;99.90
33715;DHT22;20043;50.998;4.754;2023-03-29T04:06:30;10.00;99.90
33715;DHT22;20043;50.998;4.754;2023-03-29T04:08:56;10.10;99.90
33715;DHT22;20043;50.998;4.754;2023-03-29T04:11:22;10.10;99.90
33715;DHT22;20043;50.998;4.754;2023-03-29T04:13:48;10.20;99.90
33715;DHT22;20043;50.998;4.754;2023-03-29T04:16:14;10.10;99.90
33715;DHT22;20043;50.998;4.754;2023-03-29T04:18:39;10.20;99.90
33715;DHT22;20043;50.998;4.754;2023-03-29T04:21:05;10.30;99.90
33715;DHT22;20043;50.998;4.754;2023-03-29T04:23:31;10.30;99.90
33715;DHT22;20043;50.998;4.754;2023-03-29T04:25:56;10.30;99.90
33715;DHT22;20043;50.998;4.754;2023-03-29T04:28:22;10.20;99.90
33715;DHT22;20043;50.998;4.754;2023-03-29T04:30:47;10.20;99.90
33715;DHT22;20043;50.998;4.754;2023-03-29T04:33:13;10.20;99.90
33715;DHT22;20043;50.998;4.754;2023-03-29T04:35:39;10.30;99.90
33715;DHT22;20043;50.998;4.754;2023-03-29T04:38:04;10.20;99.90
33715;DHT22;20043;50.998;4.754;2023-03-29T04:40:34;10.20;99.90
33715;DHT22;20043;50.998;4.754;2023-03-29T04:43:00;10.20;99.90
33715;DHT22;20043;50.998;4.754;2023-03-29T04:45:27;10.30;99.90
33715;DHT22;20043;50.998;4.754;2023-03-29T04:47:55;10.30;99.90
33715;DHT22;20043;50.998;4.754;2023-03-29T04:50:21;10.30;99.90
33715;DHT22;20043;50.998;4.754;2023-03-29T04:52:46;10.30;99.90
33715;DHT22;20043;50.998;4.754;2023-03-29T04:55:15;10.30;99.90
33715;DHT22;20043;50.998;4.754;2023-03-29T04:57:40;10.40;99.90
33715;DHT22;20043;50.998;4.754;2023-03-29T05:00:09;10.40;99.90
33715;DHT22;20043;50.998;4.754;2023-03-29T05:02:45;10.40;99.90
33715;DHT22;20043;50.998;4.754;2023-03-29T05:05:11;10.40;99.90
33715;DHT22;20043;50.998;4.754;2023-03-29T05:07:37;10.40;99.90
33715;DHT22;20043;50.998;4.754;2023-03-29T05:10:04;10.40;99.90
33715;DHT22;20043;50.998;4.754;2023-03-29T05:12:30;10.50;99.90
33715;DHT22;20043;50.998;4.754;2023-03-29T05:14:55;10.50;99.90
33715;DHT22;20043;50.998;4.754;2023-03-29T05:17:21;10.60;99.90
33715;DHT22;20043;50.998;4.754;2023-03-29T05:19:47;10.70;99.90
33715;DHT22;20043;50.998;4.754;2023-03-29T05:22:13;10.70;99.90
33715;DHT22;20043;50.998;4.754;2023-03-29T05:24:39;10.70;99.90
33715;DHT22;20043;50.998;4.754;2023-03-29T05:27:06;10.60;99.90
33715;DHT22;20043;50.998;4.754;2023-03-29T05:29:32;10.60;99.90
33715;DHT22;20043;50.998;4.754;2023-03-29T05:31:57;10.60;99.90
33715;DHT22;20043;50.998;4.754;2023-03-29T05:34:24;10.60;99.90
33715;DHT22;20043;50.998;4.754;2023-03-29T05:36:50;10.60;99.90
33715;DHT22;20043;50.998;4.754;2023-03-29T05:39:16;10.70;99.90
33715;DHT22;20043;50.998;4.754;2023-03-29T05:41:42;10.70;99.90
33715;DHT22;20043;50.998;4.754;2023-03-29T05:44:08;10.80;99.90
33715;DHT22;20043;50.998;4.754;2023-03-29T05:46:34;10.60;99.90
33715;DHT22;20043;50.998;4.754;2023-03-29T05:49:00;10.60;99.90
33715;DHT22;20043;50.998;4.754;2023-03-29T05:51:26;10.70;99.90
33715;DHT22;20043;50.998;4.754;2023-03-29T05:53:51;10.60;99.90
33715;DHT22;20043;50.998;4.754;2023-03-29T05:56:18;10.50;99.90
33715;DHT22;20043;50.998;4.754;2023-03-29T05:58:44;10.40;99.90
33715;DHT22;20043;50.998;4.754;2023-03-29T06:01:14;10.30;99.90
33715;DHT22;20043;50.998;4.754;2023-03-29T06:03:42;10.40;99.90
33715;DHT22;20043;50.998;4.754;2023-03-29T06:06:08;10.40;99.90
33715;DHT22;20043;50.998;4.754;2023-03-29T06:08:34;10.60;99.90
33715;DHT22;20043;50.998;4.754;2023-03-29T06:11:03;10.60;99.90
33715;DHT22;20043;50.998;4.754;2023-03-29T06:13:29;10.60;99.90
33715;DHT22;20043;50.998;4.754;2023-03-29T06:15:55;10.60;99.90
33715;DHT22;20043;50.998;4.754;2023-03-29T06:18:21;10.80;99.90
33715;DHT22;20043;50.998;4.754;2023-03-29T06:20:51;11.00;99.90
33715;DHT22;20043;50.998;4.754;2023-03-29T06:23:20;11.10;99.90
33715;DHT22;20043;50.998;4.754;2023-03-29T06:25:46;11.20;99.90
33715;DHT22;20043;50.998;4.754;2023-03-29T06:28:13;11.10;99.90
33715;DHT22;20043;50.998;4.754;2023-03-29T06:30:40;11.20;99.90
33715;DHT22;20043;50.998;4.754;2023-03-29T06:33:06;11.30;99.90
33715;DHT22;20043;50.998;4.754;2023-03-29T06:35:34;11.30;99.90
33715;DHT22;20043;50.998;4.754;2023-03-29T06:38:00;11.30;99.90
33715;DHT22;20043;50.998;4.754;2023-03-29T06:40:25;11.20;99.90
33715;DHT22;20043;50.998;4.754;2023-03-29T06:42:53;11.20;99.90
33715;DHT22;20043;50.998;4.754;2023-03-29T06:45:22;11.20;99.90
33715;DHT22;20043;50.998;4.754;2023-03-29T06:47:48;10.90;99.90
33715;DHT22;20043;50.998;4.754;2023-03-29T06:50:14;10.80;99.90
33715;DHT22;20043;50.998;4.754;2023-03-29T06:52:42;10.80;99.90
33715;DHT22;20043;50.998;4.754;2023-03-29T06:55:08;10.80;99.90
33715;DHT22;20043;50.998;4.754;2023-03-29T06:57:35;10.80;99.90
33715;DHT22;20043;50.998;4.754;2023-03-29T07:00:02;10.90;99.90
33715;DHT22;20043;50.998;4.754;2023-03-29T07:02:34;10.80;99.90
33715;DHT22;20043;50.998;4.754;2023-03-29T07:05:00;10.70;99.90
33715;DHT22;20043;50.998;4.754;2023-03-29T07:07:26;10.70;99.90
33715;DHT22;20043;50.998;4.754;2023-03-29T07:10:01;10.80;99.90
33715;DHT22;20043;50.998;4.754;2023-03-29T07:12:27;10.90;99.90
33715;DHT22;20043;50.998;4.754;2023-03-29T07:14:52;10.90;99.90
33715;DHT22;20043;50.998;4.754;2023-03-29T07:17:18;10.80;99.90
33715;DHT22;20043;50.998;4.754;2023-03-29T07:19:44;10.80;99.90
33715;DHT22;20043;50.998;4.754;2023-03-29T07:22:09;10.90;99.90
33715;DHT22;20043;50.998;4.754;2023-03-29T07:24:35;10.80;99.90
33715;DHT22;20043;50.998;4.754;2023-03-29T07:27:00;10.90;99.90
33715;DHT22;20043;50.998;4.754;2023-03-29T07:29:27;10.80;99.90
33715;DHT22;20043;50.998;4.754;2023-03-29T07:31:53;10.70;99.90
33715;DHT22;20043;50.998;4.754;2023-03-29T07:34:18;10.70;99.90
33715;DHT22;20043;50.998;4.754;2023-03-29T07:36:44;10.70;99.90
33715;DHT22;20043;50.998;4.754;2023-03-29T07:39:09;10.70;99.90
33715;DHT22;20043;50.998;4.754;2023-03-29T07:41:37;10.90;99.90
33715;DHT22;20043;50.998;4.754;2023-03-29T07:44:02;10.90;99.90
33715;DHT22;20043;50.998;4.754;2023-03-29T07:46:34;11.00;99.90
33715;DHT22;20043;50.998;4.754;2023-03-29T07:49:00;10.90;99.90
33715;DHT22;20043;50.998;4.754;2023-03-29T07:51:27;11.10;99.90
33715;DHT22;20043;50.998;4.754;2023-03-29T07:53:52;11.20;99.90
33715;DHT22;20043;50.998;4.754;2023-03-29T07:56:18;11.40;99.90
33715;DHT22;20043;50.998;4.754;2023-03-29T07:58:43;11.50;99.90
33715;DHT22;20043;50.998;4.754;2023-03-29T08:01:11;11.60;99.90
33715;DHT22;20043;50.998;4.754;2023-03-29T08:03:40;11.70;99.90
33715;DHT22;20043;50.998;4.754;2023-03-29T08:06:06;11.90;99.90
33715;DHT22;20043;50.998;4.754;2023-03-29T08:08:32;12.00;99.90
33715;DHT22;20043;50.998;4.754;2023-03-29T08:10:58;12.00;99.90
33715;DHT22;20043;50.998;4.754;2023-03-29T08:13:23;12.10;99.90
33715;DHT22;20043;50.998;4.754;2023-03-29T08:15:49;12.20;99.90
33715;DHT22;20043;50.998;4.754;2023-03-29T08:18:15;12.20;99.90
33715;DHT22;20043;50.998;4.754;2023-03-29T08:20:40;12.20;99.90
33715;DHT22;20043;50.998;4.754;2023-03-29T08:23:07;12.30;99.90
33715;DHT22;20043;50.998;4.754;2023-03-29T08:25:32;12.30;99.90
33715;DHT22;20043;50.998;4.754;2023-03-29T08:27:59;12.20;99.90
33715;DHT22;20043;50.998;4.754;2023-03-29T08:30:25;11.90;99.90
33715;DHT22;20043;50.998;4.754;2023-03-29T08:32:51;12.00;99.90
33715;DHT22;20043;50.998;4.754;2023-03-29T08:35:18;12.00;99.90
33715;DHT22;20043;50.998;4.754;2023-03-29T08:37:44;12.00;99.90
33715;DHT22;20043;50.998;4.754;2023-03-29T08:40:21;11.90;99.90
33715;DHT22;20043;50.998;4.754;2023-03-29T08:50:53;12.00;99.90
33715;DHT22;20043;50.998;4.754;2023-03-29T08:53:35;12.10;99.90
33715;DHT22;20043;50.998;4.754;2023-03-29T08:56:08;12.00;99.90
33715;DHT22;20043;50.998;4.754;2023-03-29T08:58:35;12.00;99.90
33715;DHT22;20043;50.998;4.754;2023-03-29T09:01:04;12.00;99.90
33715;DHT22;20043;50.998;4.754;2023-03-29T09:06:15;12.00;99.90
33715;DHT22;20043;50.998;4.754;2023-03-29T09:08:46;12.00;99.90
33715;DHT22;20043;50.998;4.754;2023-03-29T09:14:05;12.20;99.90
33715;DHT22;20043;50.998;4.754;2023-03-29T09:27:42;12.70;99.90
33715;DHT22;20043;50.998;4.754;2023-03-29T09:30:28;12.70;99.90
33715;DHT22;20043;50.998;4.754;2023-03-29T09:35:37;13.00;99.90
33715;DHT22;20043;50.998;4.754;2023-03-29T09:38:05;13.20;99.90
33715;DHT22;20043;50.998;4.754;2023-03-29T09:40:48;13.30;99.90
33715;DHT22;20043;50.998;4.754;2023-03-29T09:43:27;13.40;99.90
33715;DHT22;20043;50.998;4.754;2023-03-29T09:45:55;13.60;99.90
33715;DHT22;20043;50.998;4.754;2023-03-29T09:48:24;13.70;99.90
33715;DHT22;20043;50.998;4.754;2023-03-29T09:50:51;13.70;99.90
33715;DHT22;20043;50.998;4.754;2023-03-29T09:53:18;13.60;99.90
33715;DHT22;20043;50.998;4.754;2023-03-29T09:55:47;13.70;99.90
33715;DHT22;20043;50.998;4.754;2023-03-29T09:58:19;13.70;99.90
33715;DHT22;20043;50.998;4.754;2023-03-29T10:00:47;13.70;99.90
33715;DHT22;20043;50.998;4.754;2023-03-29T10:03:27;13.70;99.90
33715;DHT22;20043;50.998;4.754;2023-03-29T10:05:57;13.90;99.90
33715;DHT22;20043;50.998;4.754;2023-03-29T10:11:02;14.00;99.90
33715;DHT22;20043;50.998;4.754;2023-03-29T10:13:30;14.10;99.90
33715;DHT22;20043;50.998;4.754;2023-03-29T10:16:07;14.10;99.90
33715;DHT22;20043;50.998;4.754;2023-03-29T10:18:39;14.30;99.90
33715;DHT22;20043;50.998;4.754;2023-03-29T10:21:06;14.40;99.90
33715;DHT22;20043;50.998;4.754;2023-03-29T10:23:36;14.50;99.90
33715;DHT22;20043;50.998;4.754;2023-03-29T10:26:04;14.70;99.90
33715;DHT22;20043;50.998;4.754;2023-03-29T10:28:33;14.60;99.90
33715;DHT22;20043;50.998;4.754;2023-03-29T10:31:00;14.70;99.90
33715;DHT22;20043;50.998;4.754;2023-03-29T10:33:31;14.60;99.90
33715;DHT22;20043;50.998;4.754;2023-03-29T10:35:58;14.80;99.90
33715;DHT22;20043;50.998;4.754;2023-03-29T10:38:27;15.00;99.90
33715;DHT22;20043;50.998;4.754;2023-03-29T10:41:01;15.10;99.90
33715;DHT22;20043;50.998;4.754;2023-03-29T10:43:52;15.30;99.90
33715;DHT22;20043;50.998;4.754;2023-03-29T10:48:55;15.30;99.90
33715;DHT22;20043;50.998;4.754;2023-03-29T10:51:23;15.10;99.90
33715;DHT22;20043;50.998;4.754;2023-03-29T10:53:49;15.20;99.90
33715;DHT22;20043;50.998;4.754;2023-03-29T10:56:40;15.20;99.90
33715;DHT22;20043;50.998;4.754;2023-03-29T11:04:44;15.50;99.90
33715;DHT22;20043;50.998;4.754;2023-03-29T11:07:32;15.50;99.90
33715;DHT22;20043;50.998;4.754;2023-03-29T11:13:19;15.50;99.90
33715;DHT22;20043;50.998;4.754;2023-03-29T11:30:12;15.70;99.90
33715;DHT22;20043;50.998;4.754;2023-03-29T11:41:16;15.60;99.90
33715;DHT22;20043;50.998;4.754;2023-03-29T11:44:11;15.70;99.90
33715;DHT22;20043;50.998;4.754;2023-03-29T11:46:46;15.90;99.90
33715;DHT22;20043;50.998;4.754;2023-03-29T11:49:19;15.90;99.90
33715;DHT22;20043;50.998;4.754;2023-03-29T11:51:53;15.90;99.90
33715;DHT22;20043;50.998;4.754;2023-03-29T11:57:01;16.20;99.90
33715;DHT22;20043;50.998;4.754;2023-03-29T11:59:34;16.20;99.90
33715;DHT22;20043;50.998;4.754;2023-03-29T12:04:37;16.50;99.90
33715;DHT22;20043;50.998;4.754;2023-03-29T12:09:57;16.70;99.90
33715;DHT22;20043;50.998;4.754;2023-03-29T12:12:41;16.60;99.90
33715;DHT22;20043;50.998;4.754;2023-03-29T12:15:15;16.60;99.90
33715;DHT22;20043;50.998;4.754;2023-03-29T12:20:34;16.70;99.90
33715;DHT22;20043;50.998;4.754;2023-03-29T12:23:01;16.50;99.90
33715;DHT22;20043;50.998;4.754;2023-03-29T12:25:36;16.50;99.90
33715;DHT22;20043;50.998;4.754;2023-03-29T12:34:00;16.70;99.90
33715;DHT22;20043;50.998;4.754;2023-03-29T12:39:00;16.90;99.90
33715;DHT22;20043;50.998;4.754;2023-03-29T12:41:26;16.90;99.90
33715;DHT22;20043;50.998;4.754;2023-03-29T12:43:53;17.00;99.90
33715;DHT22;20043;50.998;4.754;2023-03-29T12:46:26;16.90;99.90
33715;DHT22;20043;50.998;4.754;2023-03-29T12:48:59;16.80;99.90
33715;DHT22;20043;50.998;4.754;2023-03-29T12:51:33;16.80;99.90
33715;DHT22;20043;50.998;4.754;2023-03-29T12:54:16;16.60;99.90
33715;DHT22;20043;50.998;4.754;2023-03-29T12:59:35;16.70;99.90
33715;DHT22;20043;50.998;4.754;2023-03-29T13:07:47;17.70;99.90
33715;DHT22;20043;50.998;4.754;2023-03-29T13:10:09;17.60;99.90
33715;DHT22;20043;50.998;4.754;2023-03-29T13:12:49;17.30;99.90
33715;DHT22;20043;50.998;4.754;2023-03-29T13:23:29;17.80;99.90
33715;DHT22;20043;50.998;4.754;2023-03-29T13:26:11;17.80;99.90
33715;DHT22;20043;50.998;4.754;2023-03-29T13:31:36;17.50;99.90
33715;DHT22;20043;50.998;4.754;2023-03-29T13:37:44;17.40;99.90
33715;DHT22;20043;50.998;4.754;2023-03-29T13:40:40;17.30;99.90
33715;DHT22;20043;50.998;4.754;2023-03-29T13:43:18;17.40;99.90
33715;DHT22;20043;50.998;4.754;2023-03-29T13:48:29;17.40;99.90
33715;DHT22;20043;50.998;4.754;2023-03-29T13:50:58;17.40;99.90
33715;DHT22;20043;50.998;4.754;2023-03-29T13:55:56;17.30;99.90
33715;DHT22;20043;50.998;4.754;2023-03-29T13:58:37;17.10;99.90
33715;DHT22;20043;50.998;4.754;2023-03-29T14:03:51;17.20;99.90
33715;DHT22;20043;50.998;4.754;2023-03-29T14:06:25;17.10;99.90
33715;DHT22;20043;50.998;4.754;2023-03-29T14:08:52;17.10;99.90
33715;DHT22;20043;50.998;4.754;2023-03-29T14:11:24;17.20;99.90
33715;DHT22;20043;50.998;4.754;2023-03-29T14:14:01;17.30;99.90
33715;DHT22;20043;50.998;4.754;2023-03-29T14:16:35;17.40;99.90
33715;DHT22;20043;50.998;4.754;2023-03-29T14:19:04;17.50;99.90
33715;DHT22;20043;50.998;4.754;2023-03-29T14:21:30;17.80;99.90
33715;DHT22;20043;50.998;4.754;2023-03-29T14:24:03;17.90;99.90
33715;DHT22;20043;50.998;4.754;2023-03-29T14:26:31;18.00;99.90
33715;DHT22;20043;50.998;4.754;2023-03-29T14:28:58;17.70;99.90
33715;DHT22;20043;50.998;4.754;2023-03-29T14:31:36;17.90;99.90
33715;DHT22;20043;50.998;4.754;2023-03-29T14:34:14;18.00;99.90
33715;DHT22;20043;50.998;4.754;2023-03-29T14:36:42;18.10;99.90
33715;DHT22;20043;50.998;4.754;2023-03-29T14:41:37;18.00;99.90
33715;DHT22;20043;50.998;4.754;2023-03-29T14:44:04;18.10;99.90
33715;DHT22;20043;50.998;4.754;2023-03-29T14:46:31;18.10;99.90
33715;DHT22;20043;50.998;4.754;2023-03-29T14:48:58;18.20;99.90
33715;DHT22;20043;50.998;4.754;2023-03-29T14:51:25;18.20;99.90
33715;DHT22;20043;50.998;4.754;2023-03-29T14:53:58;18.30;99.90
33715;DHT22;20043;50.998;4.754;2023-03-29T14:56:24;18.20;99.90
33715;DHT22;20043;50.998;4.754;2023-03-29T14:58:55;18.20;99.90
33715;DHT22;20043;50.998;4.754;2023-03-29T15:01:23;18.30;99.90
33715;DHT22;20043;50.998;4.754;2023-03-29T15:04:07;18.20;99.90
33715;DHT22;20043;50.998;4.754;2023-03-29T15:06:38;18.40;99.90
33715;DHT22;20043;50.998;4.754;2023-03-29T15:09:04;18.50;99.90
33715;DHT22;20043;50.998;4.754;2023-03-29T15:11:30;18.50;99.90
33715;DHT22;20043;50.998;4.754;2023-03-29T15:14:08;18.60;99.90
33715;DHT22;20043;50.998;4.754;2023-03-29T15:16:40;18.60;99.90
33715;DHT22;20043;50.998;4.754;2023-03-29T15:19:09;18.60;99.90
33715;DHT22;20043;50.998;4.754;2023-03-29T15:21:37;18.70;99.90
33715;DHT22;20043;50.998;4.754;2023-03-29T15:24:03;18.70;99.90
33715;DHT22;20043;50.998;4.754;2023-03-29T15:26:33;18.60;99.90
33715;DHT22;20043;50.998;4.754;2023-03-29T15:31:39;18.50;99.90
33715;DHT22;20043;50.998;4.754;2023-03-29T15:34:23;18.40;99.90
33715;DHT22;20043;50.998;4.754;2023-03-29T15:36:49;18.40;99.90
33715;DHT22;20043;50.998;4.754;2023-03-29T15:39:17;18.40;99.90
33715;DHT22;20043;50.998;4.754;2023-03-29T15:41:44;18.50;99.90
33715;DHT22;20043;50.998;4.754;2023-03-29T15:44:13;18.60;99.90
33715;DHT22;20043;50.998;4.754;2023-03-29T15:46:39;18.60;99.90
33715;DHT22;20043;50.998;4.754;2023-03-29T15:49:10;18.60;99.90
33715;DHT22;20043;50.998;4.754;2023-03-29T15:51:36;18.60;99.90
33715;DHT22;20043;50.998;4.754;2023-03-29T15:54:01;18.40;99.90
33715;DHT22;20043;50.998;4.754;2023-03-29T15:56:27;18.50;99.90
33715;DHT22;20043;50.998;4.754;2023-03-29T15:58:53;18.60;99.90
33715;DHT22;20043;50.998;4.754;2023-03-29T16:01:30;18.70;99.90
33715;DHT22;20043;50.998;4.754;2023-03-29T16:04:13;18.70;99.90
33715;DHT22;20043;50.998;4.754;2023-03-29T16:06:39;18.80;99.90
33715;DHT22;20043;50.998;4.754;2023-03-29T16:09:05;18.70;99.90
33715;DHT22;20043;50.998;4.754;2023-03-29T16:11:32;18.50;99.90
33715;DHT22;20043;50.998;4.754;2023-03-29T16:13:58;18.50;99.90
33715;DHT22;20043;50.998;4.754;2023-03-29T16:16:24;18.40;99.90
33715;DHT22;20043;50.998;4.754;2023-03-29T16:18:49;18.40;99.90
33715;DHT22;20043;50.998;4.754;2023-03-29T16:21:17;18.50;99.90
33715;DHT22;20043;50.998;4.754;2023-03-29T16:23:44;18.50;99.90
33715;DHT22;20043;50.998;4.754;2023-03-29T16:26:14;18.50;99.90
33715;DHT22;20043;50.998;4.754;2023-03-29T16:28:41;18.50;99.90
33715;DHT22;20043;50.998;4.754;2023-03-29T16:31:11;18.40;99.90
33715;DHT22;20043;50.998;4.754;2023-03-29T16:33:37;18.30;99.90
33715;DHT22;20043;50.998;4.754;2023-03-29T16:36:03;18.20;99.90
33715;DHT22;20043;50.998;4.754;2023-03-29T16:38:29;18.10;99.90
33715;DHT22;20043;50.998;4.754;2023-03-29T16:40:55;18.20;99.90
33715;DHT22;20043;50.998;4.754;2023-03-29T16:43:21;18.20;99.90
33715;DHT22;20043;50.998;4.754;2023-03-29T16:45:46;18.20;99.90
33715;DHT22;20043;50.998;4.754;2023-03-29T16:48:14;18.30;99.90
33715;DHT22;20043;50.998;4.754;2023-03-29T16:50:42;18.30;99.90
33715;DHT22;20043;50.998;4.754;2023-03-29T16:53:07;18.30;99.90
33715;DHT22;20043;50.998;4.754;2023-03-29T16:55:33;18.30;99.90
33715;DHT22;20043;50.998;4.754;2023-03-29T16:57:59;18.10;99.90
33715;DHT22;20043;50.998;4.754;2023-03-29T17:00:24;18.10;99.90
33715;DHT22;20043;50.998;4.754;2023-03-29T17:02:50;17.90;99.90
33715;DHT22;20043;50.998;4.754;2023-03-29T17:05:17;17.90;99.90
33715;DHT22;20043;50.998;4.754;2023-03-29T17:07:43;18.00;99.90
33715;DHT22;20043;50.998;4.754;2023-03-29T17:10:10;18.10;99.90
33715;DHT22;20043;50.998;4.754;2023-03-29T17:12:36;18.20;99.90
33715;DHT22;20043;50.998;4.754;2023-03-29T17:15:03;18.10;99.90
33715;DHT22;20043;50.998;4.754;2023-03-29T17:17:29;18.10;99.90
33715;DHT22;20043;50.998;4.754;2023-03-29T17:19:55;18.00;99.90
33715;DHT22;20043;50.998;4.754;2023-03-29T17:22:21;17.90;99.90
33715;DHT22;20043;50.998;4.754;2023-03-29T17:24:47;17.80;99.90
33715;DHT22;20043;50.998;4.754;2023-03-29T17:27:13;17.70;99.90
33715;DHT22;20043;50.998;4.754;2023-03-29T17:29:38;17.70;99.90
33715;DHT22;20043;50.998;4.754;2023-03-29T17:32:04;17.80;99.90
33715;DHT22;20043;50.998;4.754;2023-03-29T17:34:29;17.90;99.90
33715;DHT22;20043;50.998;4.754;2023-03-29T17:36:57;18.00;99.90
33715;DHT22;20043;50.998;4.754;2023-03-29T17:39:23;18.00;99.90
33715;DHT22;20043;50.998;4.754;2023-03-29T17:41:51;17.90;99.90
33715;DHT22;20043;50.998;4.754;2023-03-29T17:44:17;17.90;99.90
33715;DHT22;20043;50.998;4.754;2023-03-29T17:46:43;17.60;99.90
33715;DHT22;20043;50.998;4.754;2023-03-29T17:49:09;17.60;99.90
33715;DHT22;20043;50.998;4.754;2023-03-29T17:51:34;17.70;99.90
33715;DHT22;20043;50.998;4.754;2023-03-29T17:54:00;17.70;99.90
33715;DHT22;20043;50.998;4.754;2023-03-29T17:56:26;18.00;99.90
33715;DHT22;20043;50.998;4.754;2023-03-29T17:58:52;17.80;99.90
33715;DHT22;20043;50.998;4.754;2023-03-29T18:01:18;17.90;99.90
33715;DHT22;20043;50.998;4.754;2023-03-29T18:03:44;18.00;99.90